Houseville, New York
Current Conditions -  °F | °C
As of 10:53 AM on Monday 26 Jan 2015 (Local Time) from KRME Reporting Station
Overcast Overcast  
Wind Chill: -2°   Ceiling: 5000
Heat Index: 13°   Visibility: 10mi
Dew Point:   Wind: 14mph
Humidity: 59%   Direction: 110°ESE
Pressure: 30.06"   Gusts: NA
Location:  43.6569°N, 75.4278°W
Report Text: KRME 261553Z 11012KT 10SM OVC050 M11/M17 A3006 RMK AO2 SLP188 T11061172
Loading
Personal Weather Stations






























Interactive Weather Map New forecast layout! Learn more

10-Day Weather Forecast

Advertisements
Track Severe Weather on mobile